createdAt,value
2023-02-05T00:00:00.784Z,0.61
2023-02-05T00:01:00.781Z,0.61
2023-02-05T00:02:00.877Z,0.72
2023-02-05T00:03:00.897Z,0.89
2023-02-05T00:04:00.804Z,0.61
2023-02-05T00:05:00.787Z,0.61
2023-02-05T00:06:00.777Z,0.44
2023-02-05T00:07:00.842Z,0.89
2023-02-05T00:08:00.785Z,0.61
2023-02-05T00:09:00.797Z,0.44
2023-02-05T00:10:00.794Z,0.28
2023-02-05T00:11:00.790Z,0.44
2023-02-05T00:12:00.786Z,0.17
2023-02-05T00:13:00.798Z,0.89
2023-02-05T00:14:00.815Z,0.72
2023-02-05T00:15:00.793Z,0.61
2023-02-05T00:16:00.787Z,0.28
2023-02-05T00:17:00.804Z,0.61
2023-02-05T00:18:00.832Z,0.89
2023-02-05T00:19:00.802Z,0.89
2023-02-05T00:20:00.795Z,0.44
2023-02-05T00:21:00.793Z,0.61
2023-02-05T00:22:00.786Z,0.44
2023-02-05T00:23:00.788Z,0.17
2023-02-05T00:24:00.808Z,0.44
2023-02-05T00:25:00.791Z,0.44
2023-02-05T00:26:00.808Z,0
2023-02-05T00:27:00.790Z,0.44
2023-02-05T00:28:00.836Z,0.72
2023-02-05T00:29:00.786Z,0.89
2023-02-05T00:30:00.798Z,0.44
2023-02-05T00:31:00.936Z,0.44
2023-02-05T00:32:00.792Z,0.72
2023-02-05T00:33:00.795Z,0.28
2023-02-05T00:34:00.829Z,0.89
2023-02-05T00:35:00.806Z,0.89
2023-02-05T00:36:00.790Z,0.72
2023-02-05T00:37:00.799Z,0.89
2023-02-05T00:38:00.794Z,0.89
2023-02-05T00:39:00.794Z,0.61
2023-02-05T00:40:00.798Z,0.89
2023-02-05T00:41:00.833Z,0.89
2023-02-05T00:42:00.812Z,0.89
2023-02-05T00:43:00.798Z,0.44
2023-02-05T00:44:00.796Z,0.89
2023-02-05T00:45:00.805Z,0.89
2023-02-05T00:46:00.919Z,0.89
2023-02-05T00:47:00.796Z,0.72
2023-02-05T00:48:00.802Z,0.17
2023-02-05T00:49:00.797Z,0.72
2023-02-05T00:50:00.821Z,0.89
2023-02-05T00:51:00.809Z,0.61
2023-02-05T00:52:00.804Z,0.89
2023-02-05T00:53:00.794Z,0.89
2023-02-05T00:54:00.809Z,0.89
2023-02-05T00:55:00.797Z,0.72
2023-02-05T00:56:00.801Z,0.61
2023-02-05T00:57:00.804Z,0.72
2023-02-05T00:58:00.798Z,0.61
2023-02-05T00:59:00.805Z,0.72
2023-02-05T01:00:00.804Z,0.61
2023-02-05T01:01:00.881Z,0.72
2023-02-05T01:02:00.797Z,0.44
2023-02-05T01:03:00.808Z,0.61
2023-02-05T01:04:00.808Z,0.28
2023-02-05T01:05:00.802Z,0.44
2023-02-05T01:06:00.828Z,0.44
2023-02-05T01:07:00.823Z,0.17
2023-02-05T01:08:00.802Z,0.44
2023-02-05T01:09:00.821Z,0.72
2023-02-05T01:10:00.804Z,0.61
2023-02-05T01:11:00.806Z,0.44
2023-02-05T01:12:00.816Z,0.28
2023-02-05T01:13:00.817Z,0.44
2023-02-05T01:14:00.827Z,0.17
2023-02-05T01:15:00.821Z,0.28
2023-02-05T01:16:00.797Z,0.44
2023-02-05T01:17:00.799Z,0.28
2023-02-05T01:18:00.818Z,0.72
2023-02-05T01:19:00.826Z,0.61
2023-02-05T01:20:00.814Z,-0.17
2023-02-05T01:21:00.809Z,0.28
2023-02-05T01:22:00.829Z,0.61
2023-02-05T01:23:00.801Z,0.61
2023-02-05T01:24:00.804Z,0.28
2023-02-05T01:25:00.808Z,0.44
2023-02-05T01:26:00.816Z,0.17
2023-02-05T01:27:00.818Z,0.44
2023-02-05T01:28:00.865Z,0.28
2023-02-05T01:29:00.806Z,0.44
2023-02-05T01:30:00.813Z,0.17
2023-02-05T01:31:00.903Z,0
2023-02-05T01:32:00.810Z,0
2023-02-05T01:33:00.814Z,0.28
2023-02-05T01:34:00.810Z,0.28
2023-02-05T01:35:00.813Z,0.17
2023-02-05T01:36:00.809Z,0
2023-02-05T01:37:00.807Z,0.17
2023-02-05T01:38:00.835Z,0
2023-02-05T01:39:00.822Z,0
2023-02-05T01:40:00.802Z,-0.17
2023-02-05T01:41:00.827Z,0
2023-02-05T01:42:00.813Z,0
2023-02-05T01:43:00.807Z,-0.28
2023-02-05T01:44:00.798Z,0
2023-02-05T01:45:00.820Z,-0.28
2023-02-05T01:46:00.904Z,-0.17
2023-02-05T01:47:00.818Z,-0.39
2023-02-05T01:48:00.814Z,-0.17
2023-02-05T01:49:00.796Z,-0.28
2023-02-05T01:50:00.815Z,-0.39
2023-02-05T01:51:00.813Z,-0.28
2023-02-05T01:52:00.806Z,-0.28
2023-02-05T01:53:00.806Z,-0.28
2023-02-05T01:54:00.844Z,-0.17
2023-02-05T01:55:00.816Z,-0.56
2023-02-05T01:56:00.815Z,-0.67
2023-02-05T01:57:00.808Z,-0.56
2023-02-05T01:58:00.801Z,0
2023-02-05T01:59:00.811Z,0
2023-02-05T02:00:00.810Z,-0.28
2023-02-05T02:01:00.817Z,-0.39
2023-02-05T02:02:00.834Z,-0.28
2023-02-05T02:03:00.808Z,0
2023-02-05T02:04:00.845Z,-0.17
2023-02-05T02:05:00.812Z,-0.28
2023-02-05T02:06:00.812Z,-0.28
2023-02-05T02:07:00.798Z,-0.17
2023-02-05T02:08:00.802Z,-0.17
2023-02-05T02:09:00.803Z,-0.39
2023-02-05T02:10:00.825Z,0
2023-02-05T02:11:00.802Z,0.17
2023-02-05T02:12:00.795Z,-0.17
2023-02-05T02:13:00.804Z,-0.28
2023-02-05T02:14:00.822Z,0
2023-02-05T02:15:00.824Z,-0.17
2023-02-05T02:16:00.936Z,0
2023-02-05T02:17:00.805Z,0
2023-02-05T02:18:00.805Z,-0.17
2023-02-05T02:19:00.849Z,0
2023-02-05T02:20:00.824Z,-0.17
2023-02-05T02:21:00.807Z,-0.28
2023-02-05T02:22:00.816Z,0
2023-02-05T02:23:00.811Z,0
2023-02-05T02:24:00.814Z,-0.17
2023-02-05T02:25:00.810Z,-0.17
2023-02-05T02:26:00.838Z,-0.39
2023-02-05T02:27:00.861Z,0
2023-02-05T02:28:00.852Z,0
2023-02-05T02:29:00.821Z,0
2023-02-05T02:30:00.813Z,-0.28
2023-02-05T02:31:00.928Z,0
2023-02-05T02:32:00.827Z,-0.28
2023-02-05T02:33:00.818Z,-0.39
2023-02-05T02:34:00.830Z,-0.39
2023-02-05T02:35:00.822Z,0
2023-02-05T02:36:00.814Z,-0.28
2023-02-05T02:37:00.802Z,-0.17
2023-02-05T02:38:00.808Z,-0.56
2023-02-05T02:39:00.815Z,-0.17
2023-02-05T02:40:00.802Z,-0.17
2023-02-05T02:41:00.822Z,-0.28
2023-02-05T02:42:00.825Z,-0.17
2023-02-05T02:43:00.817Z,-0.56
2023-02-05T02:44:00.821Z,0
2023-02-05T02:45:00.821Z,-0.17
2023-02-05T02:46:00.812Z,-0.28
2023-02-05T02:47:00.808Z,-0.17
2023-02-05T02:48:00.813Z,0
2023-02-05T02:49:00.820Z,0
2023-02-05T02:50:00.814Z,0
2023-02-05T02:51:00.809Z,-0.17
2023-02-05T02:52:00.833Z,0
2023-02-05T02:53:00.810Z,0
2023-02-05T02:54:00.810Z,-0.17
2023-02-05T02:55:00.814Z,-0.17
2023-02-05T02:56:00.808Z,0
2023-02-05T02:57:00.805Z,-0.17
2023-02-05T02:58:00.845Z,0.17
2023-02-05T02:59:00.830Z,0.17
2023-02-05T03:00:00.819Z,0.28
2023-02-05T03:01:00.941Z,0.28
2023-02-05T03:02:00.818Z,0.17
2023-02-05T03:03:00.816Z,0.44
2023-02-05T03:04:00.831Z,0.44
2023-02-05T03:05:00.807Z,0.44
2023-02-05T03:06:00.815Z,0.44
2023-02-05T03:07:00.818Z,0.61
2023-02-05T03:08:00.817Z,0.28
2023-02-05T03:09:00.811Z,0.28
2023-02-05T03:10:00.812Z,-0.17
2023-02-05T03:11:00.829Z,0
2023-02-05T03:12:00.816Z,0.17
2023-02-05T03:13:00.827Z,0.44
2023-02-05T03:14:00.964Z,0.17
2023-02-05T03:15:00.826Z,0
2023-02-05T03:16:00.924Z,0.17
2023-02-05T03:17:00.829Z,-0.17
2023-02-05T03:18:00.822Z,0.17
2023-02-05T03:19:00.814Z,0
2023-02-05T03:20:00.824Z,0
2023-02-05T03:21:00.816Z,0.17
2023-02-05T03:22:00.823Z,0
2023-02-05T03:23:00.823Z,0
2023-02-05T03:24:00.826Z,0.17
2023-02-05T03:25:00.816Z,-0.17
2023-02-05T03:26:00.820Z,0.28
2023-02-05T03:27:00.815Z,0
2023-02-05T03:28:00.876Z,0.17
2023-02-05T03:29:00.818Z,0
2023-02-05T03:30:00.851Z,-0.17
2023-02-05T03:31:00.847Z,0.17
2023-02-05T03:32:00.816Z,0.17
2023-02-05T03:33:00.815Z,0.28
2023-02-05T03:34:00.819Z,0
2023-02-05T03:35:00.820Z,0.17
2023-02-05T03:36:00.822Z,0.17
2023-02-05T03:37:00.821Z,-0.28
2023-02-05T03:38:00.824Z,0.28
2023-02-05T03:39:00.824Z,0
2023-02-05T03:40:00.817Z,0.44
2023-02-05T03:41:00.829Z,0.17
2023-02-05T03:42:00.820Z,0
2023-02-05T03:43:00.810Z,0
2023-02-05T03:44:00.816Z,0
2023-02-05T03:45:00.821Z,-0.17
2023-02-05T03:46:00.947Z,-0.39
2023-02-05T03:47:00.825Z,-0.17
2023-02-05T03:48:00.820Z,-0.39
2023-02-05T03:49:00.830Z,0
2023-02-05T03:50:00.826Z,0
2023-02-05T03:51:00.815Z,0
2023-02-05T03:52:00.824Z,0
2023-02-05T03:53:00.822Z,-0.28
2023-02-05T03:54:00.820Z,-0.17
2023-02-05T03:55:00.823Z,0
2023-02-05T03:56:00.833Z,-0.17
2023-02-05T03:57:00.832Z,0
2023-02-05T03:58:00.821Z,0
2023-02-05T03:59:00.841Z,-0.17
2023-02-05T04:00:00.818Z,-0.17
2023-02-05T04:01:00.862Z,-0.28
2023-02-05T04:02:00.881Z,-0.17
2023-02-05T04:03:00.813Z,-0.56
2023-02-05T04:04:00.826Z,-0.28
2023-02-05T04:05:00.829Z,-0.17
2023-02-05T04:06:00.822Z,-0.56
2023-02-05T04:07:00.832Z,-0.56
2023-02-05T04:08:00.845Z,-0.39
2023-02-05T04:09:00.825Z,-0.67
2023-02-05T04:10:00.825Z,-0.28
2023-02-05T04:11:00.817Z,-0.17
2023-02-05T04:12:00.817Z,0.17
2023-02-05T04:13:00.830Z,0
2023-02-05T04:14:00.816Z,-0.28
2023-02-05T04:15:00.812Z,0
2023-02-05T04:16:00.827Z,-0.39
2023-02-05T04:17:00.818Z,-0.17
2023-02-05T04:18:00.849Z,-0.39
2023-02-05T04:19:00.824Z,-0.39
2023-02-05T04:20:00.828Z,-0.39
2023-02-05T04:21:00.825Z,-0.56
2023-02-05T04:22:00.813Z,-0.39
2023-02-05T04:23:00.820Z,-0.39
2023-02-05T04:24:00.898Z,-0.39
2023-02-05T04:25:00.822Z,-0.28
2023-02-05T04:26:00.812Z,-0.17
2023-02-05T04:27:00.841Z,-0.39
2023-02-05T04:28:00.857Z,-0.39
2023-02-05T04:29:00.836Z,-0.39
2023-02-05T04:30:00.815Z,-0.39
2023-02-05T04:31:00.882Z,-0.39
2023-02-05T04:32:00.839Z,-1
2023-02-05T04:33:00.834Z,-1
2023-02-05T04:34:00.841Z,-0.56
2023-02-05T04:35:00.824Z,-0.67
2023-02-05T04:36:00.825Z,-0.83
2023-02-05T04:37:00.843Z,-0.67
2023-02-05T04:38:00.840Z,-0.56
2023-02-05T04:39:00.825Z,-0.56
2023-02-05T04:40:00.835Z,-0.39
2023-02-05T04:41:00.826Z,-0.39
2023-02-05T04:42:00.851Z,-0.56
2023-02-05T04:43:00.826Z,-0.83
2023-02-05T04:44:00.839Z,-0.83
2023-02-05T04:45:00.849Z,-0.67
2023-02-05T04:46:00.912Z,-0.67
2023-02-05T04:47:00.826Z,-1
2023-02-05T04:48:00.846Z,-0.83
2023-02-05T04:49:00.831Z,-0.83
2023-02-05T04:50:00.853Z,-0.83
2023-02-05T04:51:00.840Z,-1.56
2023-02-05T04:52:00.834Z,-1.11
2023-02-05T04:53:00.832Z,-0.83
2023-02-05T04:54:00.837Z,-0.83
2023-02-05T04:55:00.842Z,-1
2023-02-05T04:56:00.824Z,-0.83
2023-02-05T04:57:00.834Z,-0.39
2023-02-05T04:58:00.838Z,-0.56
2023-02-05T04:59:00.828Z,-1
2023-02-05T05:00:00.837Z,-0.56
2023-02-05T05:01:00.853Z,-0.67
2023-02-05T05:02:00.838Z,-1
2023-02-05T05:03:00.839Z,-0.83
2023-02-05T05:04:00.830Z,-1
2023-02-05T05:05:00.827Z,-0.83
2023-02-05T05:06:00.852Z,-0.83
2023-02-05T05:07:00.832Z,-0.83
2023-02-05T05:08:00.834Z,-0.83
2023-02-05T05:09:00.916Z,-1.28
2023-02-05T05:10:00.889Z,-1.11
2023-02-05T05:11:00.838Z,-1.28
2023-02-05T05:12:00.830Z,-1.28
2023-02-05T05:13:00.839Z,-0.83
2023-02-05T05:14:00.828Z,-0.67
2023-02-05T05:15:00.824Z,-1
2023-02-05T05:16:00.828Z,-0.67
2023-02-05T05:17:00.833Z,-0.83
2023-02-05T05:18:00.825Z,-1.11
2023-02-05T05:19:00.831Z,-0.83
2023-02-05T05:20:00.834Z,-1
2023-02-05T05:21:00.830Z,-1.11
2023-02-05T05:22:00.862Z,-1.11
2023-02-05T05:23:00.833Z,-1.56
2023-02-05T05:24:00.824Z,-1.28
2023-02-05T05:25:00.836Z,-1.44
2023-02-05T05:26:00.836Z,-1.44
2023-02-05T05:27:00.833Z,-0.83
2023-02-05T05:28:00.836Z,-1.28
2023-02-05T05:29:00.843Z,-1.11
2023-02-05T05:30:00.829Z,-1.56
2023-02-05T05:31:00.929Z,-1
2023-02-05T05:32:00.893Z,-1.11
2023-02-05T05:33:00.853Z,-1
2023-02-05T05:34:00.834Z,-0.83
2023-02-05T05:35:00.830Z,-1.11
2023-02-05T05:36:00.837Z,-0.83
2023-02-05T05:37:00.832Z,-1.28
2023-02-05T05:38:00.981Z,-1
2023-02-05T05:39:00.836Z,-1
2023-02-05T05:40:00.834Z,-1.11
2023-02-05T05:41:00.841Z,-1.28
2023-02-05T05:42:00.825Z,-1.11
2023-02-05T05:43:00.837Z,-1.56
2023-02-05T05:44:00.834Z,-1.28
2023-02-05T05:45:00.845Z,-1.44
2023-02-05T05:46:00.861Z,-1.11
2023-02-05T05:47:00.836Z,-1
2023-02-05T05:48:00.830Z,-0.83
2023-02-05T05:49:00.846Z,-1.28
2023-02-05T05:50:00.835Z,-1.11
2023-02-05T05:51:00.841Z,-1.11
2023-02-05T05:52:00.869Z,-1.28
2023-02-05T05:53:00.838Z,-1.44
2023-02-05T05:54:00.877Z,-1.56
2023-02-05T05:55:00.827Z,-1.44
2023-02-05T05:56:00.830Z,-0.83
2023-02-05T05:57:00.829Z,-1
2023-02-05T05:58:00.839Z,-1.28
2023-02-05T05:59:00.842Z,-1.28
2023-02-05T06:00:00.838Z,-1.28
2023-02-05T06:01:00.861Z,-1.56
2023-02-05T06:02:00.827Z,-1.28
2023-02-05T06:03:00.837Z,-1.11
2023-02-05T06:04:03.001Z,-1.28
2023-02-05T06:05:00.835Z,-1.28
2023-02-05T06:06:00.855Z,-1.44
2023-02-05T06:07:00.828Z,-1.56
2023-02-05T06:08:00.845Z,-1.56
2023-02-05T06:09:00.851Z,-1.56
2023-02-05T06:10:06.819Z,-1.67
2023-02-05T06:11:00.855Z,-1.67
2023-02-05T06:12:00.831Z,-1.67
2023-02-05T06:13:00.837Z,-2.17
2023-02-05T06:14:00.842Z,-2.44
2023-02-05T06:15:00.851Z,-2.44
2023-02-05T06:16:00.883Z,-1.83
2023-02-05T06:17:00.835Z,-2.17
2023-02-05T06:18:00.842Z,-2
2023-02-05T06:19:00.832Z,-1.83
2023-02-05T06:20:00.837Z,-1.83
2023-02-05T06:21:00.832Z,-1.83
2023-02-05T06:22:00.830Z,-1.67
2023-02-05T06:23:00.831Z,-1.83
2023-02-05T06:24:00.845Z,-1.56
2023-02-05T06:25:00.836Z,-1.67
2023-02-05T06:26:00.830Z,-2
2023-02-05T06:27:00.905Z,-1.83
2023-02-05T06:28:00.893Z,-1.67
2023-02-05T06:29:00.845Z,-1.83
2023-02-05T06:30:00.860Z,-1.83
2023-02-05T06:31:00.977Z,-2.17
2023-02-05T06:32:00.907Z,-1.83
2023-02-05T06:33:00.844Z,-2.17
2023-02-05T06:34:00.842Z,-1.67
2023-02-05T06:35:00.841Z,-2
2023-02-05T06:36:00.850Z,-1.67
2023-02-05T06:37:00.860Z,-1.83
2023-02-05T06:38:00.851Z,-1.67
2023-02-05T06:39:00.837Z,-1.67
2023-02-05T06:40:00.858Z,-1.83
2023-02-05T06:41:00.854Z,-1.44
2023-02-05T06:42:00.863Z,-1.67
2023-02-05T06:43:00.868Z,-1.67
2023-02-05T06:44:00.846Z,-1.44
2023-02-05T06:45:00.867Z,-1.67
2023-02-05T06:46:00.942Z,-1.56
2023-02-05T06:47:00.836Z,-1.67
2023-02-05T06:48:00.859Z,-1.83
2023-02-05T06:49:00.858Z,-2
2023-02-05T06:50:00.849Z,-2.17
2023-02-05T06:51:00.847Z,-1.67
2023-02-05T06:52:00.843Z,-1.83
2023-02-05T06:53:00.863Z,-1.67
2023-02-05T06:54:00.867Z,-1.83
2023-02-05T06:55:00.848Z,-1.83
2023-02-05T06:56:00.858Z,-1.83
2023-02-05T06:57:00.857Z,-1.83
2023-02-05T06:58:00.844Z,-2.17
2023-02-05T06:59:00.867Z,-2
2023-02-05T07:00:00.850Z,-2
2023-02-05T07:01:00.851Z,-2.28
2023-02-05T07:02:00.872Z,-2.72
2023-02-05T07:03:00.896Z,-2
2023-02-05T07:04:00.837Z,-2.28
2023-02-05T07:05:00.875Z,-2
2023-02-05T07:06:00.860Z,-2.17
2023-02-05T07:07:00.861Z,-2
2023-02-05T07:08:00.864Z,-2.28
2023-02-05T07:09:00.859Z,-2.17
2023-02-05T07:10:00.861Z,-1.83
2023-02-05T07:11:00.860Z,-1.83
2023-02-05T07:12:00.849Z,-1.83
2023-02-05T07:13:00.873Z,-1.83
2023-02-05T07:14:00.854Z,-1.67
2023-02-05T07:15:00.896Z,-1.67
2023-02-05T07:16:00.871Z,-2
2023-02-05T07:17:00.853Z,-2.44
2023-02-05T07:18:00.880Z,-1.67
2023-02-05T07:19:00.853Z,-1.83
2023-02-05T07:20:00.851Z,-2
2023-02-05T07:21:00.860Z,-2.17
2023-02-05T07:22:00.869Z,-2.28
2023-02-05T07:23:00.858Z,-2.17
2023-02-05T07:24:00.860Z,-2.17
2023-02-05T07:25:02.665Z,-1.67
2023-02-05T07:26:00.854Z,-1.56
2023-02-05T07:27:00.861Z,-1.83
2023-02-05T07:28:00.963Z,-1.83
2023-02-05T07:29:00.865Z,-1.67
2023-02-05T07:30:00.858Z,-1.67
2023-02-05T07:31:01.006Z,-1.83
2023-02-05T07:32:00.893Z,-1.56
2023-02-05T07:33:00.854Z,-1.56
2023-02-05T07:34:00.864Z,-1.44
2023-02-05T07:35:00.864Z,-1.11
2023-02-05T07:36:00.859Z,-1.56
2023-02-05T07:37:00.868Z,-1.28
2023-02-05T07:38:00.875Z,-1.44
2023-02-05T07:39:00.869Z,-1.28
2023-02-05T07:40:00.856Z,-1.28
2023-02-05T07:41:00.863Z,-1.44
2023-02-05T07:42:00.865Z,-1.28
2023-02-05T07:43:00.870Z,-1.56
2023-02-05T07:44:00.855Z,-1.11
2023-02-05T07:45:00.852Z,-1.28
2023-02-05T07:46:00.851Z,-1.83
2023-02-05T07:47:00.886Z,-1.67
2023-02-05T07:48:00.853Z,-1.56
2023-02-05T07:49:00.865Z,-1.11
2023-02-05T07:50:00.853Z,-1.28
2023-02-05T07:51:00.863Z,-1.44
2023-02-05T07:52:00.869Z,-1
2023-02-05T07:53:00.859Z,-1
2023-02-05T07:54:00.857Z,-1
2023-02-05T07:55:00.872Z,-0.56
2023-02-05T07:56:00.854Z,-0.83
2023-02-05T07:57:00.880Z,-0.56
2023-02-05T07:58:00.849Z,-0.56
2023-02-05T07:59:00.855Z,-0.28
2023-02-05T08:00:00.858Z,-0.67
2023-02-05T08:01:00.991Z,-0.56
2023-02-05T08:02:00.850Z,-0.28
2023-02-05T08:03:00.888Z,-0.28
2023-02-05T08:04:00.884Z,-0.17
2023-02-05T08:05:00.845Z,-0.17
2023-02-05T08:06:00.852Z,-0.17
2023-02-05T08:07:00.865Z,-0.28
2023-02-05T08:08:00.855Z,-0.39
2023-02-05T08:09:00.856Z,-0.28
2023-02-05T08:10:00.861Z,-0.17
2023-02-05T08:11:00.869Z,-0.17
2023-02-05T08:12:00.871Z,-0.17
2023-02-05T08:13:00.863Z,-0.28
2023-02-05T08:14:00.853Z,-0.39
2023-02-05T08:15:00.852Z,-0.67
2023-02-05T08:16:00.894Z,-0.56
2023-02-05T08:17:00.874Z,-1.11
2023-02-05T08:18:00.863Z,-0.83
2023-02-05T08:19:00.883Z,-0.67
2023-02-05T08:20:00.854Z,-1
2023-02-05T08:21:00.868Z,-0.39
2023-02-05T08:22:00.909Z,-0.83
2023-02-05T08:23:00.865Z,-0.83
2023-02-05T08:24:00.869Z,-0.56
2023-02-05T08:25:00.861Z,-0.39
2023-02-05T08:26:00.904Z,-0.67
2023-02-05T08:27:00.862Z,-0.39
2023-02-05T08:28:00.922Z,-0.28
2023-02-05T08:29:00.869Z,-0.28
2023-02-05T08:30:00.866Z,-0.39
2023-02-05T08:31:00.901Z,0
2023-02-05T08:32:00.865Z,0.17
2023-02-05T08:33:00.869Z,0
2023-02-05T08:34:00.864Z,0
2023-02-05T08:35:00.894Z,0.44
2023-02-05T08:36:00.872Z,0.28
2023-02-05T08:37:00.856Z,0
2023-02-05T08:38:00.879Z,0.28
2023-02-05T08:39:00.873Z,0.28
2023-02-05T08:40:00.883Z,0.44
2023-02-05T08:41:00.859Z,0
2023-02-05T08:42:00.885Z,0.28
2023-02-05T08:43:00.861Z,0.61
2023-02-05T08:44:00.865Z,0.61
2023-02-05T08:45:00.865Z,0.72
2023-02-05T08:46:00.950Z,0.89
2023-02-05T08:47:00.869Z,1.17
2023-02-05T08:48:00.874Z,0.61
2023-02-05T08:49:00.870Z,-0.17
2023-02-05T08:50:00.867Z,-0.17
2023-02-05T08:51:00.900Z,-0.17
2023-02-05T08:52:00.874Z,0.44
2023-02-05T08:53:00.891Z,0.17
2023-02-05T08:54:00.869Z,0.44
2023-02-05T08:55:00.871Z,0.72
2023-02-05T08:56:00.857Z,0.61
2023-02-05T08:57:00.881Z,0.89
2023-02-05T08:58:00.870Z,0.72
2023-02-05T08:59:00.872Z,0.89
2023-02-05T09:00:00.876Z,0.44
2023-02-05T09:01:00.911Z,0.28
2023-02-05T09:02:00.868Z,0.89
2023-02-05T09:03:00.873Z,1.06
2023-02-05T09:04:01.015Z,1.06
2023-02-05T09:05:08.280Z,1.33
2023-02-05T09:06:00.861Z,1.5
2023-02-05T09:07:00.909Z,1.61
2023-02-05T09:08:00.881Z,1.5
2023-02-05T09:09:00.869Z,1.33
2023-02-05T09:10:00.862Z,1.33
2023-02-05T09:11:00.869Z,1.33
2023-02-05T09:12:00.873Z,1.06
2023-02-05T09:13:00.871Z,1.33
2023-02-05T09:14:00.877Z,1.72
2023-02-05T09:15:00.872Z,1.33
2023-02-05T09:16:00.898Z,1.17
2023-02-05T09:17:00.878Z,1.5
2023-02-05T09:18:00.903Z,1.72
2023-02-05T09:19:00.881Z,1.33
2023-02-05T09:20:00.880Z,1.33
2023-02-05T09:21:00.876Z,1.5
2023-02-05T09:22:00.881Z,1.5
2023-02-05T09:23:00.899Z,1.89
2023-02-05T09:24:00.888Z,1.89
2023-02-05T09:25:00.871Z,2.44
2023-02-05T09:26:00.881Z,2.28
2023-02-05T09:27:00.893Z,2.28
2023-02-05T09:28:00.894Z,2.28
2023-02-05T09:29:00.900Z,2.72
2023-02-05T09:30:00.912Z,2.17
2023-02-05T09:31:01.046Z,2.44
2023-02-05T09:32:00.912Z,2.61
2023-02-05T09:33:00.883Z,2.61
2023-02-05T09:34:00.876Z,2.61
2023-02-05T09:35:00.872Z,2.28
2023-02-05T09:36:00.886Z,2.61
2023-02-05T09:37:00.880Z,2.61
2023-02-05T09:38:00.880Z,2.28
2023-02-05T09:39:17.614Z,2.61
2023-02-05T09:41:00.881Z,1.72
2023-02-05T09:42:00.889Z,1.61
2023-02-05T09:43:00.887Z,1.72
2023-02-05T09:44:00.882Z,2
2023-02-05T09:45:00.899Z,2.44
2023-02-05T09:46:00.955Z,3.17
2023-02-05T09:47:00.894Z,2.89
2023-02-05T09:48:00.892Z,2.89
2023-02-05T09:49:00.898Z,2.44
2023-02-05T09:50:00.894Z,2
2023-02-05T09:51:00.892Z,1.72
2023-02-05T09:52:00.886Z,2.44
2023-02-05T09:53:00.907Z,2.44
2023-02-05T09:54:00.878Z,2.17
2023-02-05T09:55:00.915Z,2.17
2023-02-05T09:56:00.892Z,1.72
2023-02-05T09:57:00.885Z,1.89
2023-02-05T09:58:00.905Z,2
2023-02-05T09:59:00.885Z,2.72
2023-02-05T10:00:00.890Z,2.44
2023-02-05T10:01:00.949Z,2.28
2023-02-05T10:02:00.885Z,3.17
2023-02-05T10:03:00.888Z,2.61
2023-02-05T10:04:00.981Z,2.89
2023-02-05T10:05:00.887Z,3.17
2023-02-05T10:06:00.888Z,2.72
2023-02-05T10:07:00.914Z,2.72
2023-02-05T10:08:00.893Z,3
2023-02-05T10:09:00.886Z,3
2023-02-05T10:10:00.894Z,3
2023-02-05T10:11:00.914Z,3
2023-02-05T10:12:00.898Z,3.17
2023-02-05T10:13:00.910Z,3
2023-02-05T10:14:00.887Z,2.89
2023-02-05T10:15:00.880Z,1.89
2023-02-05T10:16:00.971Z,1.89
2023-02-05T10:17:00.878Z,1.72
2023-02-05T10:18:00.900Z,2
2023-02-05T10:19:00.905Z,2
2023-02-05T10:20:00.892Z,1.89
2023-02-05T10:21:00.891Z,2.17
2023-02-05T10:22:00.896Z,1.61
2023-02-05T10:23:00.893Z,1.72
2023-02-05T10:24:00.902Z,2.28
2023-02-05T10:25:00.932Z,1.89
2023-02-05T10:26:00.894Z,1.89
2023-02-05T10:27:00.910Z,1.72
2023-02-05T10:28:01.012Z,1.72
2023-02-05T10:29:00.890Z,1.72
2023-02-05T10:30:00.903Z,1.89
2023-02-05T10:31:00.983Z,1.89
2023-02-05T10:32:00.890Z,2
2023-02-05T10:33:00.909Z,2.17
2023-02-05T10:34:00.900Z,2.17
2023-02-05T10:35:00.902Z,1.72
2023-02-05T10:36:00.899Z,1.89
2023-02-05T10:37:00.898Z,2.17
2023-02-05T10:38:00.901Z,1.72
2023-02-05T10:39:00.901Z,1.89
2023-02-05T10:40:00.924Z,2
2023-02-05T10:41:00.962Z,1.72
2023-02-05T10:42:00.896Z,1.72
2023-02-05T10:43:00.917Z,1.72
2023-02-05T10:44:00.898Z,2
2023-02-05T10:45:00.906Z,2.17
2023-02-05T10:46:00.956Z,1.33
2023-02-05T10:47:00.902Z,1.61
2023-02-05T10:48:00.909Z,1.61
2023-02-05T10:49:00.912Z,1.72
2023-02-05T10:50:00.902Z,1.61
2023-02-05T10:51:00.897Z,1.89
2023-02-05T10:52:00.915Z,2
2023-02-05T10:53:00.897Z,1.72
2023-02-05T10:54:00.900Z,2
2023-02-05T10:55:00.896Z,1.72
2023-02-05T10:56:00.895Z,1.89
2023-02-05T10:57:00.902Z,2.17
2023-02-05T10:58:00.899Z,2.44
2023-02-05T10:59:00.933Z,2
2023-02-05T11:00:00.961Z,2
2023-02-05T11:01:00.905Z,1.72
2023-02-05T11:02:01.013Z,1.72
2023-02-05T11:03:00.985Z,1.72
2023-02-05T11:04:00.903Z,1.72
2023-02-05T11:05:00.903Z,1.89
2023-02-05T11:06:00.903Z,1.61
2023-02-05T11:07:00.918Z,1.72
2023-02-05T11:08:00.916Z,1.72
2023-02-05T11:09:00.917Z,1.89
2023-02-05T11:10:00.900Z,1.89
2023-02-05T11:11:00.901Z,2
2023-02-05T11:12:00.905Z,1.89
2023-02-05T11:13:00.916Z,1.72
2023-02-05T11:14:00.904Z,1.72
2023-02-05T11:15:00.956Z,2
2023-02-05T11:16:00.994Z,2
2023-02-05T11:17:00.914Z,1.72
2023-02-05T11:18:00.910Z,2
2023-02-05T11:19:00.915Z,2
2023-02-05T11:20:00.908Z,2
2023-02-05T11:21:00.906Z,2
2023-02-05T11:22:00.917Z,2
2023-02-05T11:23:00.909Z,1.72
2023-02-05T11:24:00.935Z,2
2023-02-05T11:25:00.900Z,2
2023-02-05T11:26:00.920Z,2.72
2023-02-05T11:27:00.913Z,2.61
2023-02-05T11:28:00.998Z,2.17
2023-02-05T11:29:00.925Z,2.44
2023-02-05T11:30:00.917Z,2.44
2023-02-05T11:31:01.315Z,2.17
2023-02-05T11:32:01.052Z,1.33
2023-02-05T11:33:00.912Z,1.61
2023-02-05T11:34:00.914Z,1.61
2023-02-05T11:35:00.922Z,1.61
2023-02-05T11:36:00.935Z,1.89
2023-02-05T11:37:00.929Z,1.72
2023-02-05T11:38:00.916Z,1.61
2023-02-05T11:39:00.917Z,2.17
2023-02-05T11:40:00.915Z,2
2023-02-05T11:41:00.923Z,1.72
2023-02-05T11:42:00.912Z,2
2023-02-05T11:43:00.920Z,1.72
2023-02-05T11:44:00.916Z,1.72
2023-02-05T11:45:00.907Z,1.72
2023-02-05T11:46:00.906Z,2.17
2023-02-05T11:47:05.973Z,2.61
2023-02-05T11:48:00.938Z,2
2023-02-05T11:49:00.949Z,1.89
2023-02-05T11:50:00.910Z,1.89
2023-02-05T11:51:00.906Z,1.89
2023-02-05T11:52:00.914Z,1.61
2023-02-05T11:53:00.920Z,1.72
2023-02-05T11:54:00.909Z,1.89
2023-02-05T11:55:00.916Z,2.17
2023-02-05T11:56:00.933Z,2.17
2023-02-05T11:57:00.916Z,2.28
2023-02-05T11:58:00.928Z,1.89
2023-02-05T11:59:00.924Z,1.72
2023-02-05T12:00:00.935Z,1.61
2023-02-05T12:01:00.930Z,2.17
2023-02-05T12:02:00.918Z,1.72
2023-02-05T12:03:00.959Z,2
2023-02-05T12:04:00.954Z,2.17
2023-02-05T12:05:00.921Z,2.17
2023-02-05T12:06:00.922Z,2
2023-02-05T12:07:00.919Z,2.44
2023-02-05T12:08:00.918Z,2.44
2023-02-05T12:09:00.919Z,2.44
2023-02-05T12:10:00.919Z,2.17
2023-02-05T12:11:00.938Z,2.61
2023-02-05T12:12:00.933Z,2.44
2023-02-05T12:13:00.920Z,2
2023-02-05T12:14:00.924Z,2.17
2023-02-05T12:15:00.925Z,2
2023-02-05T12:16:01.015Z,2
2023-02-05T12:17:00.921Z,2.17
2023-02-05T12:18:00.916Z,2
2023-02-05T12:19:00.917Z,2.61
2023-02-05T12:20:00.987Z,2
2023-02-05T12:21:00.927Z,2.28
2023-02-05T12:22:00.929Z,2.28
2023-02-05T12:23:00.931Z,2.44
2023-02-05T12:24:00.927Z,2
2023-02-05T12:25:00.928Z,2.61
2023-02-05T12:26:00.924Z,2.17
2023-02-05T12:27:00.939Z,2.28
2023-02-05T12:28:01.055Z,2.61
2023-02-05T12:29:00.934Z,2.44
2023-02-05T12:30:00.933Z,2.28
2023-02-05T12:31:00.916Z,1.89
2023-02-05T12:32:00.915Z,1.89
2023-02-05T12:33:00.928Z,2.17
2023-02-05T12:34:00.917Z,2.44
2023-02-05T12:35:00.918Z,2.17
2023-02-05T12:36:00.941Z,2
2023-02-05T12:37:00.922Z,2.17
2023-02-05T12:38:00.913Z,2.44
2023-02-05T12:39:03.120Z,2.72
2023-02-05T12:40:00.913Z,2.61
2023-02-05T12:41:00.928Z,2.72
2023-02-05T12:42:00.979Z,2.89
2023-02-05T12:43:00.911Z,2.72
2023-02-05T12:44:00.936Z,2.28
2023-02-05T12:45:00.915Z,2.89
2023-02-05T12:46:00.950Z,2.72
2023-02-05T12:47:00.928Z,3
2023-02-05T12:48:00.960Z,3.17
2023-02-05T12:49:00.907Z,2.89
2023-02-05T12:50:00.917Z,2.17
2023-02-05T12:51:00.915Z,2.72
2023-02-05T12:52:00.938Z,3
2023-02-05T12:53:00.921Z,3.33
2023-02-05T12:54:00.914Z,3.33
2023-02-05T12:55:00.913Z,3.44
2023-02-05T12:56:00.945Z,3.72
2023-02-05T12:57:00.907Z,3.56
2023-02-05T12:58:00.910Z,3.44
2023-02-05T12:59:00.915Z,3.44
2023-02-05T13:00:00.919Z,3
2023-02-05T13:01:00.928Z,2.89
2023-02-05T13:02:00.918Z,2.89
2023-02-05T13:03:00.919Z,2.89
2023-02-05T13:04:01.556Z,4.17
2023-02-05T13:05:00.907Z,3.83
2023-02-05T13:06:00.927Z,3
2023-02-05T13:07:00.909Z,3.33
2023-02-05T13:08:00.935Z,2.89
2023-02-05T13:09:00.927Z,2.89
2023-02-05T13:10:01.512Z,2.61
2023-02-05T13:11:00.909Z,3
2023-02-05T13:12:00.921Z,3
2023-02-05T13:13:00.923Z,3.33
2023-02-05T13:14:00.931Z,3
2023-02-05T13:15:00.931Z,2.72
2023-02-05T13:16:00.946Z,2.61
2023-02-05T13:17:00.929Z,2.61
2023-02-05T13:18:00.942Z,2.17
2023-02-05T13:19:00.924Z,2.72
2023-02-05T13:20:00.920Z,3
2023-02-05T13:21:00.929Z,3
2023-02-05T13:22:00.914Z,2.61